createdAt,value
2022-10-19T00:01:04.975Z,99627.23
2022-10-19T00:04:10.524Z,99623.89
2022-10-19T00:07:16.074Z,99617.55
2022-10-19T00:10:21.538Z,99614.55
2022-10-19T00:13:27.075Z,99614.47
2022-10-19T00:16:35.421Z,99614.00
2022-10-19T00:19:40.916Z,99617.11
2022-10-19T00:22:46.483Z,99615.73
2022-10-19T00:25:58.671Z,99615.44
2022-10-19T00:29:04.908Z,99619.38
2022-10-19T00:32:10.397Z,99617.11
2022-10-19T00:35:16.055Z,99615.10
2022-10-19T00:38:22.573Z,99615.01
2022-10-19T00:41:30.839Z,99615.31
2022-10-19T00:45:00.652Z,99617.70
2022-10-19T00:48:06.653Z,99616.45
2022-10-19T00:51:12.371Z,99614.37
2022-10-19T00:54:18.861Z,99614.06
2022-10-19T00:57:28.742Z,99608.33
2022-10-19T01:00:34.788Z,99604.28
2022-10-19T01:03:39.539Z,99600.27
2022-10-19T01:06:45.205Z,99590.39
2022-10-19T01:09:50.957Z,99587.80
2022-10-19T01:13:16.101Z,99585.86
2022-10-19T01:16:32.133Z,99588.33
2022-10-19T01:20:10.667Z,99586.89
2022-10-19T01:23:45.794Z,99581.17
2022-10-19T01:27:11.921Z,99579.74
2022-10-19T01:30:26.994Z,99580.40
2022-10-19T01:33:47.073Z,99579.59
2022-10-19T01:37:01.822Z,99578.67
2022-10-19T01:40:14.064Z,99574.41
2022-10-19T01:43:39.261Z,99570.59
2022-10-19T01:46:50.681Z,99568.81
2022-10-19T01:50:00.324Z,99566.95
2022-10-19T01:53:09.105Z,99565.89
2022-10-19T01:56:17.969Z,99567.63
2022-10-19T01:59:24.644Z,99569.31
2022-10-19T02:02:31.030Z,99572.66
2022-10-19T02:05:39.383Z,99568.35
2022-10-19T02:08:48.721Z,99571.27
2022-10-19T02:11:57.937Z,99565.79
2022-10-19T02:15:11.261Z,99559.94
2022-10-19T02:18:20.901Z,99559.94
2022-10-19T02:21:27.236Z,99556.42
2022-10-19T02:24:32.972Z,99554.58
2022-10-19T02:27:42.163Z,99552.85
2022-10-19T02:30:47.945Z,99557.11
2022-10-19T02:33:53.946Z,99550.11
2022-10-19T02:37:00.034Z,99544.16
2022-10-19T02:40:04.099Z,99539.05
2022-10-19T02:43:15.211Z,99545.52
2022-10-19T02:46:25.241Z,99557.44
2022-10-19T02:49:34.284Z,99549.70
2022-10-19T02:52:41.130Z,99548.09
2022-10-19T02:55:48.572Z,99545.16
2022-10-19T02:58:54.073Z,99547.42
2022-10-19T03:01:59.519Z,99547.89
2022-10-19T03:05:05.448Z,99545.93
2022-10-19T03:08:10.925Z,99540.97
2022-10-19T03:11:16.365Z,99537.44
2022-10-19T03:14:22.068Z,99531.64
2022-10-19T03:17:27.560Z,99533.55
2022-10-19T03:20:33.136Z,99533.45
2022-10-19T03:23:39.593Z,99534.50
2022-10-19T03:26:45.143Z,99536.86
2022-10-19T03:29:50.576Z,99541.60
2022-10-19T03:32:56.139Z,99538.25
2022-10-19T03:36:20.960Z,99532.91
2022-10-19T03:39:26.556Z,99536.94
2022-10-19T03:42:31.986Z,99535.00
2022-10-19T03:45:37.589Z,99536.27
2022-10-19T03:48:43.343Z,99532.38
2022-10-19T03:51:48.934Z,99532.73
2022-10-19T03:54:54.444Z,99534.59
2022-10-19T03:58:00.329Z,99535.73
2022-10-19T04:01:11.609Z,99535.81
2022-10-19T04:04:20.057Z,99532.66
2022-10-19T04:07:25.646Z,99526.64
2022-10-19T04:10:33.510Z,99523.75
2022-10-19T04:13:39.020Z,99523.76
2022-10-19T04:16:44.681Z,99523.44
2022-10-19T04:19:50.308Z,99519.36
2022-10-19T04:22:56.540Z,99514.30
2022-10-19T04:26:05.208Z,99511.08
2022-10-19T04:29:11.201Z,99511.06
2022-10-19T04:32:16.691Z,99508.66
2022-10-19T04:35:22.151Z,99504.58
2022-10-19T04:38:27.801Z,99501.55
2022-10-19T04:41:34.313Z,99505.16
2022-10-19T04:44:40.130Z,99507.05
2022-10-19T04:47:45.597Z,99506.67
2022-10-19T04:50:51.096Z,99505.91
2022-10-19T04:53:59.688Z,99503.30
2022-10-19T04:57:06.631Z,99506.88
2022-10-19T05:00:14.834Z,99504.20
2022-10-19T05:03:20.376Z,99499.87
2022-10-19T05:06:26.591Z,99505.45
2022-10-19T05:09:30.504Z,99504.94
2022-10-19T05:12:37.284Z,99500.66
2022-10-19T05:15:42.998Z,99504.17
2022-10-19T05:18:51.717Z,99510.80
2022-10-19T05:21:57.271Z,99512.71
2022-10-19T05:25:02.726Z,99514.07
2022-10-19T05:28:08.267Z,99510.54
2022-10-19T05:31:15.763Z,99509.20
2022-10-19T05:34:21.465Z,99504.05
2022-10-19T05:37:26.995Z,99503.94
2022-10-19T05:40:32.514Z,99504.92
2022-10-19T05:43:38.166Z,99507.73
2022-10-19T05:46:43.944Z,99509.79
2022-10-19T05:49:50.186Z,99506.20
2022-10-19T05:52:55.740Z,99506.54
2022-10-19T05:56:01.394Z,99507.76
2022-10-19T05:59:09.702Z,99508.02
2022-10-19T06:02:16.604Z,99510.00
2022-10-19T06:05:22.046Z,99511.73
2022-10-19T06:08:27.683Z,99519.33
2022-10-19T06:11:35.734Z,99519.02
2022-10-19T06:14:41.407Z,99523.16
2022-10-19T06:17:47.187Z,99523.58
2022-10-19T06:20:52.761Z,99527.59
2022-10-19T06:23:59.870Z,99535.13
2022-10-19T06:27:06.815Z,99534.48
2022-10-19T06:30:14.144Z,99537.46
2022-10-19T06:33:19.759Z,99544.02
2022-10-19T06:36:27.605Z,99549.52
2022-10-19T06:39:33.109Z,99552.73
2022-10-19T06:42:39.478Z,99555.08
2022-10-19T06:45:45.027Z,99556.01
2022-10-19T06:48:54.918Z,99563.77
2022-10-19T06:52:00.428Z,99570.25
2022-10-19T06:55:07.412Z,99569.70
2022-10-19T06:58:12.822Z,99572.46
2022-10-19T07:01:18.559Z,99578.93
2022-10-19T07:04:24.177Z,99576.90
2022-10-19T07:07:29.762Z,99585.48
2022-10-19T07:10:35.388Z,99585.89
2022-10-19T07:13:41.323Z,99589.23
2022-10-19T07:16:47.082Z,99596.16
2022-10-19T07:19:52.626Z,99594.77
2022-10-19T07:22:58.075Z,99597.10
2022-10-19T07:26:07.480Z,99599.11
2022-10-19T07:29:13.369Z,99600.69
2022-10-19T07:32:18.920Z,99597.52
2022-10-19T07:35:24.468Z,99598.84
2022-10-19T07:38:31.349Z,99596.04
2022-10-19T07:41:37.106Z,99599.29
2022-10-19T07:44:43.241Z,99599.41
2022-10-19T07:47:47.178Z,99600.59
2022-10-19T07:50:52.672Z,99598.70
2022-10-19T07:53:58.510Z,99598.39
2022-10-19T07:57:04.135Z,99597.74
2022-10-19T08:00:12.391Z,99592.86
2022-10-19T08:06:43.514Z,99588.38
2022-10-19T08:09:53.351Z,99577.81
2022-10-19T08:12:59.634Z,99573.40
2022-10-19T08:16:05.516Z,99570.11
2022-10-19T08:19:13.024Z,99569.86
2022-10-19T08:22:18.492Z,99572.50
2022-10-19T08:25:23.942Z,99567.89
2022-10-19T08:28:29.632Z,99566.15
2022-10-19T08:31:35.415Z,99567.42
2022-10-19T08:34:41.486Z,99563.17
2022-10-19T08:37:45.848Z,99564.27
2022-10-19T08:40:51.728Z,99561.12
2022-10-19T08:44:12.637Z,99563.51
2022-10-19T08:47:29.085Z,99570.61
2022-10-19T08:50:39.517Z,99575.38
2022-10-19T08:53:52.750Z,99583.27
2022-10-19T08:57:07.838Z,99583.92
2022-10-19T09:00:19.018Z,99575.60
2022-10-19T09:03:54.330Z,99578.64
2022-10-19T09:07:22.338Z,99584.44
2022-10-19T09:10:30.580Z,99584.20
2022-10-19T09:13:53.473Z,99587.02
2022-10-19T09:17:13.673Z,99589.67
2022-10-19T09:20:22.873Z,99588.77
2022-10-19T09:23:36.653Z,99594.07
2022-10-19T09:26:52.409Z,99597.67
2022-10-19T09:29:59.436Z,99597.04
2022-10-19T09:33:06.421Z,99591.61
2022-10-19T09:36:22.406Z,99587.84
2022-10-19T09:39:33.615Z,99584.01
2022-10-19T09:42:39.134Z,99577.42
2022-10-19T09:45:48.985Z,99579.02
2022-10-19T09:48:54.893Z,99580.64
2022-10-19T09:52:00.389Z,99584.66
2022-10-19T09:55:08.585Z,99587.02
2022-10-19T09:58:21.366Z,99587.73
2022-10-19T10:01:41.812Z,99589.85
2022-10-19T10:04:58.348Z,99585.79
2022-10-19T10:08:04.317Z,99586.17
2022-10-19T10:11:12.616Z,99584.66
2022-10-19T10:14:22.784Z,99583.62
2022-10-19T10:17:32.755Z,99586.77
2022-10-19T10:20:40.510Z,99585.63
2022-10-19T10:23:59.317Z,99585.90
2022-10-19T10:27:07.429Z,99589.35
2022-10-19T10:30:21.299Z,99587.72
2022-10-19T10:33:44.226Z,99586.05
2022-10-19T10:36:54.920Z,99584.44
2022-10-19T10:40:04.623Z,99583.92
2022-10-19T10:43:16.599Z,99582.52
2022-10-19T10:46:26.478Z,99578.04
2022-10-19T10:49:35.131Z,99574.31
2022-10-19T10:52:41.569Z,99570.55
2022-10-19T10:55:57.999Z,99573.27
2022-10-19T10:59:13.261Z,99574.77
2022-10-19T11:02:30.969Z,99571.20
2022-10-19T11:05:39.719Z,99571.92
2022-10-19T11:08:51.233Z,99573.66
2022-10-19T11:11:59.536Z,99572.61
2022-10-19T11:15:14.049Z,99574.85
2022-10-19T11:18:26.460Z,99575.14
2022-10-19T11:21:37.739Z,99575.36
2022-10-19T11:24:55.269Z,99572.75
2022-10-19T11:28:15.155Z,99575.29
2022-10-19T11:31:25.350Z,99573.63
2022-10-19T11:34:50.697Z,99581.83
2022-10-19T11:38:28.874Z,99576.19
2022-10-19T11:41:46.083Z,99567.84
2022-10-19T11:45:04.363Z,99564.94
2022-10-19T11:48:33.371Z,99560.77
2022-10-19T11:51:43.940Z,99561.02
2022-10-19T11:55:04.379Z,99563.66
2022-10-19T11:58:25.596Z,99562.40
2022-10-19T12:01:40.587Z,99558.48
2022-10-19T12:04:53.621Z,99555.77
2022-10-19T12:08:15.454Z,99550.33
2022-10-19T12:11:32.493Z,99547.21
2022-10-19T12:14:42.145Z,99551.49
2022-10-19T12:17:50.518Z,99550.02
2022-10-19T12:21:00.762Z,99551.02
2022-10-19T12:24:12.352Z,99552.41
2022-10-19T12:27:24.485Z,99554.90
2022-10-19T12:30:30.473Z,99555.32
2022-10-19T12:33:48.937Z,99552.25
2022-10-19T12:37:00.561Z,99552.95
2022-10-19T12:40:14.813Z,99554.38
2022-10-19T12:43:27.146Z,99551.42
2022-10-19T12:46:39.859Z,99546.64
2022-10-19T12:49:50.244Z,99540.61
2022-10-19T12:52:55.789Z,99539.78
2022-10-19T12:56:06.729Z,99536.05
2022-10-19T12:59:24.784Z,99538.14
2022-10-19T13:02:35.135Z,99541.55
2022-10-19T13:05:41.654Z,99540.54
2022-10-19T13:08:57.329Z,99541.40
2022-10-19T13:12:43.203Z,99544.70
2022-10-19T13:15:56.107Z,99550.27
2022-10-19T13:19:22.442Z,99556.52
2022-10-19T13:22:29.978Z,99562.86
2022-10-19T13:25:36.255Z,99559.93
2022-10-19T13:28:53.229Z,99558.19
2022-10-19T13:32:44.648Z,99555.91
2022-10-19T13:35:50.408Z,99553.92
2022-10-19T13:39:16.537Z,99557.52
2022-10-19T13:42:29.560Z,99558.52
2022-10-19T13:45:35.745Z,99563.04
2022-10-19T13:48:45.719Z,99566.45
2022-10-19T13:52:06.380Z,99565.48
2022-10-19T13:55:29.400Z,99561.98
2022-10-19T13:59:09.649Z,99560.98
2022-10-19T14:02:42.233Z,99565.11
2022-10-19T14:06:14.317Z,99567.01
2022-10-19T14:09:48.375Z,99569.60
2022-10-19T14:12:54.505Z,99566.90
2022-10-19T14:16:00.517Z,99566.30
2022-10-19T14:19:15.394Z,99567.20
2022-10-19T14:22:30.020Z,99565.23
2022-10-19T14:25:35.680Z,99567.16
2022-10-19T14:28:43.065Z,99556.57
2022-10-19T14:31:48.827Z,99553.28
2022-10-19T14:34:55.955Z,99559.40
2022-10-19T14:38:02.019Z,99563.30
2022-10-19T14:41:19.962Z,99556.72
2022-10-19T14:44:37.547Z,99557.32
2022-10-19T14:47:54.063Z,99554.96
2022-10-19T14:51:00.658Z,99556.57
2022-10-19T14:54:09.339Z,99558.34
2022-10-19T14:57:20.122Z,99560.63
2022-10-19T15:03:40.219Z,99563.99
2022-10-19T15:06:49.514Z,99571.87
2022-10-19T15:09:58.837Z,99570.67
2022-10-19T15:13:07.567Z,99567.21
2022-10-19T15:16:31.632Z,99568.54
2022-10-19T15:19:42.597Z,99565.74
2022-10-19T15:22:48.113Z,99564.48
2022-10-19T15:26:02.009Z,99563.07
2022-10-19T15:29:20.437Z,99561.05
2022-10-19T15:32:31.895Z,99556.84
2022-10-19T15:35:39.728Z,99557.19
2022-10-19T15:38:46.142Z,99562.95
2022-10-19T15:41:51.749Z,99563.95
2022-10-19T15:44:58.013Z,99564.66
2022-10-19T15:48:28.380Z,99570.34
2022-10-19T15:51:47.820Z,99576.20
2022-10-19T15:54:54.497Z,99576.06
2022-10-19T15:58:02.344Z,99580.48
2022-10-19T16:01:16.878Z,99584.79
2022-10-19T16:04:22.372Z,99592.80
2022-10-19T16:07:31.482Z,99599.39
2022-10-19T16:10:37.091Z,99600.15
2022-10-19T16:13:43.049Z,99598.08
2022-10-19T16:16:50.339Z,99600.16
2022-10-19T16:19:55.787Z,99604.15
2022-10-19T16:23:01.438Z,99602.89
2022-10-19T16:26:07.412Z,99599.01
2022-10-19T16:29:12.859Z,99609.73
2022-10-19T16:32:18.394Z,99616.87
2022-10-19T16:35:24.079Z,99620.40
2022-10-19T16:38:31.542Z,99624.90
2022-10-19T16:44:47.555Z,99627.87
2022-10-19T16:47:53.869Z,99626.77
2022-10-19T16:51:35.449Z,99628.34
2022-10-19T16:54:40.966Z,99624.02
2022-10-19T16:57:46.517Z,99624.63
2022-10-19T17:00:52.298Z,99627.18
2022-10-19T17:03:58.576Z,99634.84
2022-10-19T17:07:04.085Z,99643.69
2022-10-19T17:10:10.948Z,99648.99
2022-10-19T17:13:16.442Z,99652.27
2022-10-19T17:16:23.440Z,99649.52
2022-10-19T17:19:29.053Z,99653.88
2022-10-19T17:22:35.010Z,99654.31
2022-10-19T17:25:47.213Z,99659.90
2022-10-19T17:28:52.610Z,99665.44
2022-10-19T17:31:58.568Z,99667.52
2022-10-19T17:35:04.058Z,99664.02
2022-10-19T17:38:09.478Z,99671.23
2022-10-19T17:41:17.263Z,99677.75
2022-10-19T17:44:23.979Z,99682.02
2022-10-19T17:47:30.666Z,99687.61
2022-10-19T17:50:36.318Z,99688.91
2022-10-19T17:53:41.794Z,99692.53
2022-10-19T17:56:47.317Z,99693.95
2022-10-19T17:59:54.299Z,99695.02
2022-10-19T18:02:59.817Z,99696.20
2022-10-19T18:06:09.886Z,99698.11
2022-10-19T18:09:16.476Z,99702.39
2022-10-19T18:12:22.025Z,99702.83
2022-10-19T18:15:27.576Z,99707.87
2022-10-19T18:18:35.505Z,99707.11
2022-10-19T18:21:43.041Z,99712.48
2022-10-19T18:24:49.596Z,99715.06
2022-10-19T18:27:55.097Z,99716.70
2022-10-19T18:31:07.427Z,99717.84
2022-10-19T18:34:16.365Z,99721.23
2022-10-19T18:37:21.812Z,99719.54
2022-10-19T18:40:27.843Z,99722.64
2022-10-19T18:43:33.700Z,99721.31
2022-10-19T18:46:40.124Z,99723.56
2022-10-19T18:49:45.618Z,99730.16
2022-10-19T18:52:51.066Z,99732.50
2022-10-19T18:56:04.109Z,99731.48
2022-10-19T18:59:09.882Z,99735.94
2022-10-19T19:02:28.219Z,99744.88
2022-10-19T19:05:40.090Z,99747.64
2022-10-19T19:08:45.949Z,99753.45
2022-10-19T19:11:54.200Z,99755.77
2022-10-19T19:14:59.626Z,99756.54
2022-10-19T19:18:05.609Z,99758.27
2022-10-19T19:21:16.803Z,99760.63
2022-10-19T19:24:28.067Z,99763.34
2022-10-19T19:27:33.724Z,99767.48
2022-10-19T19:30:44.557Z,99767.88
2022-10-19T19:33:50.310Z,99775.12
2022-10-19T19:36:55.859Z,99777.33
2022-10-19T19:40:01.424Z,99778.60
2022-10-19T19:43:06.862Z,99781.70
2022-10-19T19:46:15.482Z,99781.14
2022-10-19T19:49:21.128Z,99784.15
2022-10-19T19:52:26.582Z,99784.40
2022-10-19T19:55:38.157Z,99786.45
2022-10-19T19:58:46.276Z,99792.52
2022-10-19T20:01:51.989Z,99794.89
2022-10-19T20:04:57.536Z,99794.80
2022-10-19T20:08:03.027Z,99796.20
2022-10-19T20:11:11.034Z,99798.59
2022-10-19T20:14:16.583Z,99794.09
2022-10-19T20:17:23.977Z,99799.20
2022-10-19T20:20:29.465Z,99808.20
2022-10-19T20:23:35.100Z,99813.36
2022-10-19T20:26:41.034Z,99814.52
2022-10-19T20:29:46.583Z,99815.13
2022-10-19T20:32:55.980Z,99815.41
2022-10-19T20:36:06.480Z,99810.48
2022-10-19T20:39:12.461Z,99814.77
2022-10-19T20:42:19.269Z,99813.52
2022-10-19T20:45:24.778Z,99817.48
2022-10-19T20:48:30.325Z,99818.88
2022-10-19T20:51:37.956Z,99817.11
2022-10-19T20:54:43.574Z,99816.54
2022-10-19T20:57:49.107Z,99817.05
2022-10-19T21:00:54.533Z,99817.58
2022-10-19T21:04:03.313Z,99819.61
2022-10-19T21:07:09.097Z,99819.65
2022-10-19T21:10:14.560Z,99824.98
2022-10-19T21:13:20.046Z,99831.23
2022-10-19T21:16:28.393Z,99839.11
2022-10-19T21:19:34.463Z,99843.77
2022-10-19T21:22:41.620Z,99843.36
2022-10-19T21:25:56.164Z,99847.27
2022-10-19T21:29:01.720Z,99846.45
2022-10-19T21:32:07.780Z,99845.52
2022-10-19T21:35:13.434Z,99845.29
2022-10-19T21:38:18.865Z,99844.65
2022-10-19T21:41:26.391Z,99843.55
2022-10-19T21:44:32.157Z,99843.34
2022-10-19T21:47:38.033Z,99841.92
2022-10-19T21:50:43.787Z,99840.61
2022-10-19T21:53:49.231Z,99842.60
2022-10-19T21:56:56.690Z,99842.98
2022-10-19T22:00:02.255Z,99843.94
2022-10-19T22:03:07.728Z,99840.59
2022-10-19T22:06:14.473Z,99843.44
2022-10-19T22:09:21.814Z,99849.48
2022-10-19T22:12:27.317Z,99850.25
2022-10-19T22:15:32.847Z,99850.09
2022-10-19T22:18:38.497Z,99849.85
2022-10-19T22:21:44.355Z,99851.52
2022-10-19T22:24:49.903Z,99857.85
2022-10-19T22:27:55.361Z,99864.02
2022-10-19T22:31:01.718Z,99863.04
2022-10-19T22:34:09.835Z,99861.21
2022-10-19T22:37:15.260Z,99865.34
2022-10-19T22:40:20.927Z,99868.13
2022-10-19T22:44:20.135Z,99869.09
2022-10-19T22:47:26.401Z,99867.61
2022-10-19T22:50:30.709Z,99863.96
2022-10-19T22:53:36.610Z,99866.80
2022-10-19T22:56:42.669Z,99867.66
2022-10-19T22:59:48.740Z,99866.62
2022-10-19T23:02:54.778Z,99867.64
2022-10-19T23:06:00.992Z,99867.90
2022-10-19T23:09:05.636Z,99868.88
2022-10-19T23:12:11.717Z,99869.77
2022-10-19T23:15:17.844Z,99866.80
2022-10-19T23:18:23.923Z,99862.11
2022-10-19T23:21:29.965Z,99864.57
2022-10-19T23:24:35.882Z,99863.60
2022-10-19T23:27:41.922Z,99868.09
2022-10-19T23:30:48.030Z,99871.47
2022-10-19T23:33:54.661Z,99879.25
2022-10-19T23:37:00.550Z,99882.05
2022-10-19T23:40:07.681Z,99880.95
2022-10-19T23:43:13.356Z,99880.79
2022-10-19T23:46:19.341Z,99882.66
2022-10-19T23:49:25.068Z,99887.68
2022-10-19T23:52:30.720Z,99890.48
2022-10-19T23:55:36.475Z,99893.24
2022-10-19T23:58:42.433Z,99894.42
